sensor_id;sensor_type;location;lat;lon;timestamp;P1;durP1;ratioP1;P2;durP2;ratioP2
42834;SDS011;29335;50.526;30.458;2022-09-09T00:00:29;6.13;;;3.17;;
42834;SDS011;29335;50.526;30.458;2022-09-09T00:03:08;4.82;;;3.28;;
42834;SDS011;29335;50.526;30.458;2022-09-09T00:05:51;7.60;;;3.35;;
42834;SDS011;29335;50.526;30.458;2022-09-09T00:08:51;6.13;;;3.53;;
42834;SDS011;29335;50.526;30.458;2022-09-09T00:11:22;4.82;;;3.20;;
42834;SDS011;29335;50.526;30.458;2022-09-09T00:13:53;7.50;;;3.15;;
42834;SDS011;29335;50.526;30.458;2022-09-09T00:16:22;5.15;;;3.15;;
42834;SDS011;29335;50.526;30.458;2022-09-09T00:19:02;4.90;;;3.42;;
42834;SDS011;29335;50.526;30.458;2022-09-09T00:21:39;5.05;;;3.13;;
42834;SDS011;29335;50.526;30.458;2022-09-09T00:24:38;6.85;;;3.33;;
42834;SDS011;29335;50.526;30.458;2022-09-09T00:27:51;6.30;;;3.38;;
42834;SDS011;29335;50.526;30.458;2022-09-09T00:29:56;7.40;;;3.67;;
42834;SDS011;29335;50.526;30.458;2022-09-09T00:32:39;5.63;;;3.63;;
42834;SDS011;29335;50.526;30.458;2022-09-09T00:35:21;5.75;;;3.35;;
42834;SDS011;29335;50.526;30.458;2022-09-09T00:37:50;5.97;;;3.58;;
42834;SDS011;29335;50.526;30.458;2022-09-09T00:40:33;6.28;;;3.35;;
42834;SDS011;29335;50.526;30.458;2022-09-09T00:45:57;5.53;;;3.65;;
42834;SDS011;29335;50.526;30.458;2022-09-09T00:48:48;6.00;;;3.58;;
42834;SDS011;29335;50.526;30.458;2022-09-09T00:56:20;5.25;;;3.28;;
42834;SDS011;29335;50.526;30.458;2022-09-09T00:58:53;7.50;;;3.13;;
42834;SDS011;29335;50.526;30.458;2022-09-09T01:01:32;5.30;;;3.20;;
42834;SDS011;29335;50.526;30.458;2022-09-09T01:03:58;7.05;;;3.55;;
42834;SDS011;29335;50.526;30.458;2022-09-09T01:09:05;6.72;;;3.65;;
42834;SDS011;29335;50.526;30.458;2022-09-09T01:17:01;6.57;;;3.85;;
42834;SDS011;29335;50.526;30.458;2022-09-09T01:19:40;6.15;;;3.58;;
42834;SDS011;29335;50.526;30.458;2022-09-09T01:24:54;6.80;;;4.22;;
42834;SDS011;29335;50.526;30.458;2022-09-09T01:27:43;5.50;;;3.13;;
42834;SDS011;29335;50.526;30.458;2022-09-09T01:30:12;5.03;;;3.45;;
42834;SDS011;29335;50.526;30.458;2022-09-09T01:35:13;7.50;;;4.15;;
42834;SDS011;29335;50.526;30.458;2022-09-09T01:37:46;6.78;;;3.92;;
42834;SDS011;29335;50.526;30.458;2022-09-09T01:40:12;5.25;;;3.40;;
42834;SDS011;29335;50.526;30.458;2022-09-09T01:42:38;5.72;;;3.65;;
42834;SDS011;29335;50.526;30.458;2022-09-09T01:45:03;5.38;;;3.90;;
42834;SDS011;29335;50.526;30.458;2022-09-09T01:47:29;5.32;;;3.90;;
42834;SDS011;29335;50.526;30.458;2022-09-09T01:49:55;7.07;;;3.80;;
42834;SDS011;29335;50.526;30.458;2022-09-09T01:52:21;9.40;;;4.35;;
42834;SDS011;29335;50.526;30.458;2022-09-09T01:54:47;6.30;;;3.65;;
42834;SDS011;29335;50.526;30.458;2022-09-09T02:02:32;5.97;;;3.97;;
42834;SDS011;29335;50.526;30.458;2022-09-09T02:07:49;7.95;;;4.25;;
42834;SDS011;29335;50.526;30.458;2022-09-09T02:10:19;7.03;;;4.30;;
42834;SDS011;29335;50.526;30.458;2022-09-09T02:12:53;5.22;;;3.40;;
42834;SDS011;29335;50.526;30.458;2022-09-09T02:15:32;5.50;;;4.05;;
42834;SDS011;29335;50.526;30.458;2022-09-09T02:21:07;6.03;;;4.03;;
42834;SDS011;29335;50.526;30.458;2022-09-09T02:23:36;7.30;;;4.40;;
42834;SDS011;29335;50.526;30.458;2022-09-09T02:26:05;5.72;;;4.07;;
42834;SDS011;29335;50.526;30.458;2022-09-09T02:28:32;6.07;;;4.07;;
42834;SDS011;29335;50.526;30.458;2022-09-09T02:31:02;6.88;;;4.13;;
42834;SDS011;29335;50.526;30.458;2022-09-09T02:33:28;6.95;;;4.07;;
42834;SDS011;29335;50.526;30.458;2022-09-09T02:35:59;8.30;;;4.85;;
42834;SDS011;29335;50.526;30.458;2022-09-09T02:38:28;6.97;;;4.38;;
42834;SDS011;29335;50.526;30.458;2022-09-09T02:41:00;7.03;;;4.53;;
42834;SDS011;29335;50.526;30.458;2022-09-09T02:43:30;5.65;;;3.78;;
42834;SDS011;29335;50.526;30.458;2022-09-09T02:46:00;7.45;;;4.40;;
42834;SDS011;29335;50.526;30.458;2022-09-09T02:48:40;6.93;;;4.25;;
42834;SDS011;29335;50.526;30.458;2022-09-09T02:54:21;6.97;;;4.07;;
42834;SDS011;29335;50.526;30.458;2022-09-09T02:56:51;7.15;;;4.20;;
42834;SDS011;29335;50.526;30.458;2022-09-09T02:59:19;5.95;;;4.35;;
42834;SDS011;29335;50.526;30.458;2022-09-09T03:01:45;8.55;;;5.80;;
42834;SDS011;29335;50.526;30.458;2022-09-09T03:04:12;6.88;;;4.22;;
42834;SDS011;29335;50.526;30.458;2022-09-09T03:06:37;7.45;;;4.93;;
42834;SDS011;29335;50.526;30.458;2022-09-09T03:09:03;6.15;;;3.83;;
42834;SDS011;29335;50.526;30.458;2022-09-09T03:11:29;6.93;;;4.28;;
42834;SDS011;29335;50.526;30.458;2022-09-09T03:13:54;6.72;;;4.65;;
42834;SDS011;29335;50.526;30.458;2022-09-09T03:16:21;8.57;;;5.50;;
42834;SDS011;29335;50.526;30.458;2022-09-09T03:18:47;6.13;;;4.40;;
42834;SDS011;29335;50.526;30.458;2022-09-09T03:21:13;7.65;;;4.30;;
42834;SDS011;29335;50.526;30.458;2022-09-09T03:23:39;7.05;;;4.53;;
42834;SDS011;29335;50.526;30.458;2022-09-09T03:26:04;6.70;;;4.07;;
42834;SDS011;29335;50.526;30.458;2022-09-09T03:28:30;7.32;;;4.13;;
42834;SDS011;29335;50.526;30.458;2022-09-09T03:30:59;7.63;;;4.40;;
42834;SDS011;29335;50.526;30.458;2022-09-09T03:33:26;5.80;;;3.92;;
42834;SDS011;29335;50.526;30.458;2022-09-09T03:35:52;6.85;;;4.80;;
42834;SDS011;29335;50.526;30.458;2022-09-09T03:38:18;6.22;;;4.30;;
42834;SDS011;29335;50.526;30.458;2022-09-09T03:40:53;6.68;;;3.90;;
42834;SDS011;29335;50.526;30.458;2022-09-09T03:43:22;8.63;;;5.75;;
42834;SDS011;29335;50.526;30.458;2022-09-09T03:45:51;6.35;;;3.97;;
42834;SDS011;29335;50.526;30.458;2022-09-09T03:48:18;6.18;;;4.53;;
42834;SDS011;29335;50.526;30.458;2022-09-09T03:50:51;10.40;;;6.25;;
42834;SDS011;29335;50.526;30.458;2022-09-09T03:53:18;5.50;;;4.30;;
42834;SDS011;29335;50.526;30.458;2022-09-09T03:55:46;7.03;;;4.20;;
42834;SDS011;29335;50.526;30.458;2022-09-09T03:58:13;6.55;;;4.15;;
42834;SDS011;29335;50.526;30.458;2022-09-09T04:00:39;6.88;;;3.95;;
42834;SDS011;29335;50.526;30.458;2022-09-09T04:03:07;7.22;;;4.43;;
42834;SDS011;29335;50.526;30.458;2022-09-09T04:05:33;6.20;;;4.07;;
42834;SDS011;29335;50.526;30.458;2022-09-09T04:07:59;5.53;;;4.07;;
42834;SDS011;29335;50.526;30.458;2022-09-09T04:10:25;5.40;;;4.00;;
42834;SDS011;29335;50.526;30.458;2022-09-09T04:12:51;5.80;;;3.75;;
42834;SDS011;29335;50.526;30.458;2022-09-09T04:15:17;7.13;;;3.83;;
42834;SDS011;29335;50.526;30.458;2022-09-09T04:17:43;6.90;;;4.18;;
42834;SDS011;29335;50.526;30.458;2022-09-09T04:20:09;7.45;;;4.00;;
42834;SDS011;29335;50.526;30.458;2022-09-09T04:22:36;6.22;;;4.13;;
42834;SDS011;29335;50.526;30.458;2022-09-09T04:25:03;7.18;;;4.07;;
42834;SDS011;29335;50.526;30.458;2022-09-09T04:27:30;7.50;;;3.95;;
42834;SDS011;29335;50.526;30.458;2022-09-09T04:29:56;6.60;;;4.10;;
42834;SDS011;29335;50.526;30.458;2022-09-09T04:32:22;5.88;;;4.03;;
42834;SDS011;29335;50.526;30.458;2022-09-09T04:34:48;5.95;;;4.15;;
42834;SDS011;29335;50.526;30.458;2022-09-09T04:37:14;6.05;;;4.13;;
42834;SDS011;29335;50.526;30.458;2022-09-09T04:39:39;6.30;;;3.75;;
42834;SDS011;29335;50.526;30.458;2022-09-09T04:42:05;5.43;;;3.75;;
42834;SDS011;29335;50.526;30.458;2022-09-09T04:44:30;7.88;;;4.07;;
42834;SDS011;29335;50.526;30.458;2022-09-09T04:46:56;6.78;;;4.18;;
42834;SDS011;29335;50.526;30.458;2022-09-09T04:49:22;5.97;;;3.53;;
42834;SDS011;29335;50.526;30.458;2022-09-09T04:51:48;5.00;;;3.88;;
42834;SDS011;29335;50.526;30.458;2022-09-09T04:54:14;6.93;;;4.18;;
42834;SDS011;29335;50.526;30.458;2022-09-09T04:56:40;6.53;;;4.30;;
42834;SDS011;29335;50.526;30.458;2022-09-09T04:59:07;5.82;;;3.67;;
42834;SDS011;29335;50.526;30.458;2022-09-09T05:01:32;6.03;;;3.70;;
42834;SDS011;29335;50.526;30.458;2022-09-09T05:03:59;6.68;;;4.28;;
42834;SDS011;29335;50.526;30.458;2022-09-09T05:06:24;6.95;;;3.63;;
42834;SDS011;29335;50.526;30.458;2022-09-09T05:08:50;7.07;;;4.55;;
42834;SDS011;29335;50.526;30.458;2022-09-09T05:11:17;6.03;;;3.75;;
42834;SDS011;29335;50.526;30.458;2022-09-09T05:13:43;6.20;;;4.20;;
42834;SDS011;29335;50.526;30.458;2022-09-09T05:16:09;8.10;;;3.95;;
42834;SDS011;29335;50.526;30.458;2022-09-09T05:18:36;7.53;;;4.88;;
42834;SDS011;29335;50.526;30.458;2022-09-09T05:21:02;8.02;;;4.85;;
42834;SDS011;29335;50.526;30.458;2022-09-09T05:23:28;7.20;;;3.95;;
42834;SDS011;29335;50.526;30.458;2022-09-09T05:25:57;6.40;;;4.43;;
42834;SDS011;29335;50.526;30.458;2022-09-09T05:28:24;5.47;;;4.18;;
42834;SDS011;29335;50.526;30.458;2022-09-09T05:31:00;6.30;;;4.03;;
42834;SDS011;29335;50.526;30.458;2022-09-09T05:33:30;7.10;;;4.40;;
42834;SDS011;29335;50.526;30.458;2022-09-09T05:36:00;6.45;;;4.60;;
42834;SDS011;29335;50.526;30.458;2022-09-09T05:38:28;5.63;;;4.35;;
42834;SDS011;29335;50.526;30.458;2022-09-09T05:40:55;9.00;;;4.68;;
42834;SDS011;29335;50.526;30.458;2022-09-09T05:43:21;6.03;;;4.80;;
42834;SDS011;29335;50.526;30.458;2022-09-09T05:45:48;7.43;;;5.45;;
42834;SDS011;29335;50.526;30.458;2022-09-09T05:48:23;8.30;;;4.80;;
42834;SDS011;29335;50.526;30.458;2022-09-09T05:50:52;7.50;;;4.85;;
42834;SDS011;29335;50.526;30.458;2022-09-09T05:53:19;6.38;;;4.30;;
42834;SDS011;29335;50.526;30.458;2022-09-09T05:55:45;7.28;;;4.70;;
42834;SDS011;29335;50.526;30.458;2022-09-09T05:58:10;6.65;;;4.25;;
42834;SDS011;29335;50.526;30.458;2022-09-09T06:00:36;6.40;;;4.53;;
42834;SDS011;29335;50.526;30.458;2022-09-09T06:03:02;7.97;;;4.72;;
42834;SDS011;29335;50.526;30.458;2022-09-09T06:05:28;6.18;;;4.30;;
42834;SDS011;29335;50.526;30.458;2022-09-09T06:07:55;8.73;;;4.72;;
42834;SDS011;29335;50.526;30.458;2022-09-09T06:10:21;7.53;;;4.88;;
42834;SDS011;29335;50.526;30.458;2022-09-09T06:12:47;5.63;;;4.35;;
42834;SDS011;29335;50.526;30.458;2022-09-09T06:15:13;7.15;;;4.78;;
42834;SDS011;29335;50.526;30.458;2022-09-09T06:17:38;8.55;;;4.72;;
42834;SDS011;29335;50.526;30.458;2022-09-09T06:20:04;7.75;;;4.80;;
42834;SDS011;29335;50.526;30.458;2022-09-09T06:22:30;7.05;;;4.40;;
42834;SDS011;29335;50.526;30.458;2022-09-09T06:24:56;8.75;;;4.45;;
42834;SDS011;29335;50.526;30.458;2022-09-09T06:27:21;6.68;;;4.75;;
42834;SDS011;29335;50.526;30.458;2022-09-09T06:29:47;7.47;;;4.35;;
42834;SDS011;29335;50.526;30.458;2022-09-09T06:32:13;5.75;;;4.30;;
42834;SDS011;29335;50.526;30.458;2022-09-09T06:34:39;9.40;;;4.25;;
42834;SDS011;29335;50.526;30.458;2022-09-09T06:37:04;6.53;;;4.25;;
42834;SDS011;29335;50.526;30.458;2022-09-09T06:39:31;6.85;;;4.20;;
42834;SDS011;29335;50.526;30.458;2022-09-09T06:41:57;6.03;;;4.22;;
42834;SDS011;29335;50.526;30.458;2022-09-09T06:44:23;6.63;;;4.30;;
42834;SDS011;29335;50.526;30.458;2022-09-09T06:46:51;7.28;;;4.13;;
42834;SDS011;29335;50.526;30.458;2022-09-09T06:49:17;6.82;;;4.47;;
42834;SDS011;29335;50.526;30.458;2022-09-09T06:51:43;6.05;;;4.05;;
42834;SDS011;29335;50.526;30.458;2022-09-09T06:54:09;6.78;;;4.28;;
42834;SDS011;29335;50.526;30.458;2022-09-09T06:56:37;7.60;;;4.78;;
42834;SDS011;29335;50.526;30.458;2022-09-09T06:59:07;8.57;;;4.35;;
42834;SDS011;29335;50.526;30.458;2022-09-09T07:01:34;6.32;;;4.00;;
42834;SDS011;29335;50.526;30.458;2022-09-09T07:04:01;5.97;;;3.80;;
42834;SDS011;29335;50.526;30.458;2022-09-09T07:06:30;6.35;;;3.55;;
42834;SDS011;29335;50.526;30.458;2022-09-09T07:08:58;6.68;;;3.35;;
42834;SDS011;29335;50.526;30.458;2022-09-09T07:11:28;5.00;;;3.50;;
42834;SDS011;29335;50.526;30.458;2022-09-09T07:13:59;5.70;;;3.53;;
42834;SDS011;29335;50.526;30.458;2022-09-09T07:16:25;4.95;;;3.33;;
42834;SDS011;29335;50.526;30.458;2022-09-09T07:18:52;5.55;;;3.83;;
42834;SDS011;29335;50.526;30.458;2022-09-09T07:21:23;4.90;;;3.22;;
42834;SDS011;29335;50.526;30.458;2022-09-09T07:23:50;6.97;;;4.45;;
42834;SDS011;29335;50.526;30.458;2022-09-09T07:26:16;6.63;;;3.33;;
42834;SDS011;29335;50.526;30.458;2022-09-09T07:28:46;7.43;;;3.85;;
42834;SDS011;29335;50.526;30.458;2022-09-09T07:31:14;4.45;;;2.53;;
42834;SDS011;29335;50.526;30.458;2022-09-09T07:33:41;4.57;;;3.05;;
42834;SDS011;29335;50.526;30.458;2022-09-09T07:36:14;5.18;;;2.30;;
42834;SDS011;29335;50.526;30.458;2022-09-09T07:39:00;7.93;;;2.60;;
42834;SDS011;29335;50.526;30.458;2022-09-09T07:41:32;7.45;;;2.47;;
42834;SDS011;29335;50.526;30.458;2022-09-09T07:43:59;3.78;;;2.30;;
42834;SDS011;29335;50.526;30.458;2022-09-09T07:46:28;6.85;;;2.70;;
42834;SDS011;29335;50.526;30.458;2022-09-09T07:48:55;5.25;;;2.40;;
42834;SDS011;29335;50.526;30.458;2022-09-09T07:53:55;5.68;;;2.60;;
42834;SDS011;29335;50.526;30.458;2022-09-09T07:56:23;4.50;;;2.20;;
42834;SDS011;29335;50.526;30.458;2022-09-09T07:58:50;3.65;;;1.85;;
42834;SDS011;29335;50.526;30.458;2022-09-09T08:01:25;4.75;;;2.20;;
42834;SDS011;29335;50.526;30.458;2022-09-09T08:03:56;4.53;;;2.30;;
42834;SDS011;29335;50.526;30.458;2022-09-09T08:06:24;5.00;;;2.05;;
42834;SDS011;29335;50.526;30.458;2022-09-09T08:08:51;4.88;;;2.60;;
42834;SDS011;29335;50.526;30.458;2022-09-09T08:11:18;5.68;;;2.40;;
42834;SDS011;29335;50.526;30.458;2022-09-09T08:13:44;5.00;;;2.30;;
42834;SDS011;29335;50.526;30.458;2022-09-09T08:18:39;6.18;;;2.10;;
42834;SDS011;29335;50.526;30.458;2022-09-09T08:21:27;3.63;;;1.85;;
42834;SDS011;29335;50.526;30.458;2022-09-09T08:23:55;3.05;;;1.70;;
42834;SDS011;29335;50.526;30.458;2022-09-09T08:26:23;2.65;;;1.63;;
42834;SDS011;29335;50.526;30.458;2022-09-09T08:28:52;3.25;;;1.90;;
42834;SDS011;29335;50.526;30.458;2022-09-09T08:31:24;2.55;;;1.60;;
42834;SDS011;29335;50.526;30.458;2022-09-09T08:33:53;6.45;;;1.70;;
42834;SDS011;29335;50.526;30.458;2022-09-09T08:36:20;5.10;;;1.80;;
42834;SDS011;29335;50.526;30.458;2022-09-09T08:38:48;2.85;;;1.60;;
42834;SDS011;29335;50.526;30.458;2022-09-09T08:43:50;5.07;;;1.98;;
42834;SDS011;29335;50.526;30.458;2022-09-09T08:51:56;4.63;;;1.70;;
42834;SDS011;29335;50.526;30.458;2022-09-09T08:54:22;2.95;;;1.83;;
42834;SDS011;29335;50.526;30.458;2022-09-09T08:56:48;2.60;;;1.50;;
42834;SDS011;29335;50.526;30.458;2022-09-09T08:59:16;4.70;;;2.17;;
42834;SDS011;29335;50.526;30.458;2022-09-09T09:04:42;3.35;;;1.52;;
42834;SDS011;29335;50.526;30.458;2022-09-09T09:14:23;4.53;;;1.92;;
42834;SDS011;29335;50.526;30.458;2022-09-09T09:16:33;2.65;;;1.40;;
42834;SDS011;29335;50.526;30.458;2022-09-09T09:19:03;4.10;;;1.77;;
42834;SDS011;29335;50.526;30.458;2022-09-09T09:21:48;2.83;;;1.38;;
42834;SDS011;29335;50.526;30.458;2022-09-09T09:26:47;2.67;;;1.58;;
42834;SDS011;29335;50.526;30.458;2022-09-09T09:29:13;5.57;;;1.80;;
42834;SDS011;29335;50.526;30.458;2022-09-09T09:31:45;6.25;;;1.88;;
42834;SDS011;29335;50.526;30.458;2022-09-09T09:34:20;3.35;;;1.48;;
42834;SDS011;29335;50.526;30.458;2022-09-09T09:36:52;2.53;;;1.50;;
42834;SDS011;29335;50.526;30.458;2022-09-09T09:39:26;4.28;;;1.60;;
42834;SDS011;29335;50.526;30.458;2022-09-09T09:41:52;4.00;;;1.52;;
42834;SDS011;29335;50.526;30.458;2022-09-09T09:44:26;3.55;;;1.50;;
42834;SDS011;29335;50.526;30.458;2022-09-09T09:47:04;3.67;;;1.63;;
42834;SDS011;29335;50.526;30.458;2022-09-09T09:49:31;3.22;;;1.38;;
42834;SDS011;29335;50.526;30.458;2022-09-09T09:52:01;3.05;;;1.50;;
42834;SDS011;29335;50.526;30.458;2022-09-09T09:54:29;2.92;;;1.60;;
42834;SDS011;29335;50.526;30.458;2022-09-09T09:57:07;3.92;;;1.20;;
42834;SDS011;29335;50.526;30.458;2022-09-09T09:59:37;1.55;;;1.23;;
42834;SDS011;29335;50.526;30.458;2022-09-09T10:02:13;2.55;;;1.10;;
42834;SDS011;29335;50.526;30.458;2022-09-09T10:04:38;5.68;;;1.70;;
42834;SDS011;29335;50.526;30.458;2022-09-09T10:07:11;2.17;;;1.48;;
42834;SDS011;29335;50.526;30.458;2022-09-09T10:09:38;5.25;;;1.55;;
42834;SDS011;29335;50.526;30.458;2022-09-09T10:14:59;3.80;;;1.30;;
42834;SDS011;29335;50.526;30.458;2022-09-09T10:23:26;4.10;;;1.27;;
42834;SDS011;29335;50.526;30.458;2022-09-09T10:32:20;1.98;;;1.20;;
42834;SDS011;29335;50.526;30.458;2022-09-09T10:40:31;3.65;;;1.40;;
42834;SDS011;29335;50.526;30.458;2022-09-09T10:43:02;3.47;;;1.25;;
42834;SDS011;29335;50.526;30.458;2022-09-09T10:45:41;3.33;;;1.20;;
42834;SDS011;29335;50.526;30.458;2022-09-09T10:51:24;4.45;;;1.48;;
42834;SDS011;29335;50.526;30.458;2022-09-09T10:57:24;5.18;;;1.73;;
42834;SDS011;29335;50.526;30.458;2022-09-09T11:00:02;2.42;;;1.23;;
42834;SDS011;29335;50.526;30.458;2022-09-09T11:02:38;1.75;;;1.13;;
42834;SDS011;29335;50.526;30.458;2022-09-09T11:05:08;6.20;;;1.55;;
42834;SDS011;29335;50.526;30.458;2022-09-09T11:07:57;4.70;;;1.40;;
42834;SDS011;29335;50.526;30.458;2022-09-09T11:10:40;4.43;;;1.40;;
42834;SDS011;29335;50.526;30.458;2022-09-09T11:16:16;3.42;;;1.30;;
42834;SDS011;29335;50.526;30.458;2022-09-09T11:18:50;3.20;;;1.35;;
42834;SDS011;29335;50.526;30.458;2022-09-09T11:21:36;2.75;;;1.45;;
42834;SDS011;29335;50.526;30.458;2022-09-09T11:24:09;4.07;;;1.55;;
42834;SDS011;29335;50.526;30.458;2022-09-09T11:26:40;2.65;;;1.50;;
42834;SDS011;29335;50.526;30.458;2022-09-09T11:32:17;2.42;;;1.20;;
42834;SDS011;29335;50.526;30.458;2022-09-09T11:35:20;2.95;;;1.40;;
42834;SDS011;29335;50.526;30.458;2022-09-09T11:41:06;2.92;;;1.27;;
42834;SDS011;29335;50.526;30.458;2022-09-09T11:46:14;3.13;;;1.45;;
42834;SDS011;29335;50.526;30.458;2022-09-09T11:48:45;5.07;;;1.40;;
42834;SDS011;29335;50.526;30.458;2022-09-09T11:53:54;3.90;;;1.20;;
42834;SDS011;29335;50.526;30.458;2022-09-09T11:56:31;2.33;;;1.10;;
42834;SDS011;29335;50.526;30.458;2022-09-09T11:59:19;3.45;;;1.30;;
42834;SDS011;29335;50.526;30.458;2022-09-09T12:02:03;2.33;;;1.40;;
42834;SDS011;29335;50.526;30.458;2022-09-09T12:04:54;2.60;;;1.45;;
42834;SDS011;29335;50.526;30.458;2022-09-09T12:07:37;3.13;;;1.30;;
42834;SDS011;29335;50.526;30.458;2022-09-09T12:12:36;3.55;;;1.30;;
42834;SDS011;29335;50.526;30.458;2022-09-09T12:17:36;2.30;;;0.98;;
42834;SDS011;29335;50.526;30.458;2022-09-09T12:28:39;7.35;;;1.63;;
42834;SDS011;29335;50.526;30.458;2022-09-09T12:31:10;5.80;;;1.65;;
42834;SDS011;29335;50.526;30.458;2022-09-09T12:33:42;6.05;;;1.67;;
42834;SDS011;29335;50.526;30.458;2022-09-09T12:36:16;3.28;;;1.00;;
42834;SDS011;29335;50.526;30.458;2022-09-09T12:41:20;5.72;;;1.52;;
42834;SDS011;29335;50.526;30.458;2022-09-09T12:44:05;2.40;;;1.42;;
42834;SDS011;29335;50.526;30.458;2022-09-09T12:46:43;5.55;;;1.67;;
42834;SDS011;29335;50.526;30.458;2022-09-09T12:52:14;3.97;;;1.73;;
42834;SDS011;29335;50.526;30.458;2022-09-09T12:54:49;7.18;;;1.95;;
42834;SDS011;29335;50.526;30.458;2022-09-09T12:57:18;3.72;;;1.77;;
42834;SDS011;29335;50.526;30.458;2022-09-09T12:59:46;2.70;;;1.60;;
42834;SDS011;29335;50.526;30.458;2022-09-09T13:02:17;3.33;;;1.70;;
42834;SDS011;29335;50.526;30.458;2022-09-09T13:04:45;2.53;;;1.50;;
42834;SDS011;29335;50.526;30.458;2022-09-09T13:07:11;3.20;;;1.50;;
42834;SDS011;29335;50.526;30.458;2022-09-09T13:09:38;8.02;;;1.80;;
42834;SDS011;29335;50.526;30.458;2022-09-09T13:12:04;5.20;;;1.42;;
42834;SDS011;29335;50.526;30.458;2022-09-09T13:14:34;6.68;;;1.50;;
42834;SDS011;29335;50.526;30.458;2022-09-09T13:17:03;2.35;;;1.50;;
42834;SDS011;29335;50.526;30.458;2022-09-09T13:19:32;4.97;;;1.60;;
42834;SDS011;29335;50.526;30.458;2022-09-09T13:22:11;7.57;;;1.40;;
42834;SDS011;29335;50.526;30.458;2022-09-09T13:24:38;3.20;;;1.60;;
42834;SDS011;29335;50.526;30.458;2022-09-09T13:27:05;4.95;;;1.23;;
42834;SDS011;29335;50.526;30.458;2022-09-09T13:29:52;4.60;;;1.65;;
42834;SDS011;29335;50.526;30.458;2022-09-09T13:32:20;5.55;;;1.80;;
42834;SDS011;29335;50.526;30.458;2022-09-09T13:34:50;2.72;;;1.65;;
42834;SDS011;29335;50.526;30.458;2022-09-09T13:37:32;3.70;;;1.77;;
42834;SDS011;29335;50.526;30.458;2022-09-09T13:39:59;2.65;;;1.60;;
42834;SDS011;29335;50.526;30.458;2022-09-09T13:42:28;3.53;;;1.70;;
42834;SDS011;29335;50.526;30.458;2022-09-09T13:44:56;4.50;;;1.60;;
42834;SDS011;29335;50.526;30.458;2022-09-09T13:47:28;3.80;;;1.50;;
42834;SDS011;29335;50.526;30.458;2022-09-09T13:49:56;4.47;;;1.38;;
42834;SDS011;29335;50.526;30.458;2022-09-09T13:52:22;2.75;;;1.77;;
42834;SDS011;29335;50.526;30.458;2022-09-09T13:54:49;4.32;;;1.30;;
42834;SDS011;29335;50.526;30.458;2022-09-09T13:57:17;5.20;;;2.10;;
42834;SDS011;29335;50.526;30.458;2022-09-09T13:59:45;4.75;;;1.98;;
42834;SDS011;29335;50.526;30.458;2022-09-09T14:02:12;5.07;;;1.85;;
42834;SDS011;29335;50.526;30.458;2022-09-09T14:04:38;4.78;;;1.88;;
42834;SDS011;29335;50.526;30.458;2022-09-09T14:07:06;3.97;;;1.58;;
42834;SDS011;29335;50.526;30.458;2022-09-09T14:09:38;8.50;;;2.08;;
42834;SDS011;29335;50.526;30.458;2022-09-09T14:12:04;3.25;;;1.83;;
42834;SDS011;29335;50.526;30.458;2022-09-09T14:14:30;4.88;;;1.80;;
42834;SDS011;29335;50.526;30.458;2022-09-09T14:16:56;3.95;;;1.73;;
42834;SDS011;29335;50.526;30.458;2022-09-09T14:19:21;4.22;;;1.90;;
42834;SDS011;29335;50.526;30.458;2022-09-09T14:21:47;4.57;;;1.90;;
42834;SDS011;29335;50.526;30.458;2022-09-09T14:24:13;7.72;;;1.98;;
42834;SDS011;29335;50.526;30.458;2022-09-09T14:26:39;2.88;;;1.88;;
42834;SDS011;29335;50.526;30.458;2022-09-09T14:29:05;4.47;;;1.55;;
42834;SDS011;29335;50.526;30.458;2022-09-09T14:31:31;4.43;;;1.77;;
42834;SDS011;29335;50.526;30.458;2022-09-09T14:33:57;3.88;;;1.58;;
42834;SDS011;29335;50.526;30.458;2022-09-09T14:36:23;2.60;;;1.42;;
42834;SDS011;29335;50.526;30.458;2022-09-09T14:38:49;6.70;;;1.60;;
42834;SDS011;29335;50.526;30.458;2022-09-09T14:41:16;3.97;;;1.70;;
42834;SDS011;29335;50.526;30.458;2022-09-09T14:43:43;4.90;;;1.65;;
42834;SDS011;29335;50.526;30.458;2022-09-09T14:46:13;3.83;;;1.60;;
42834;SDS011;29335;50.526;30.458;2022-09-09T14:48:40;3.10;;;1.45;;
42834;SDS011;29335;50.526;30.458;2022-09-09T14:51:10;3.42;;;2.03;;
42834;SDS011;29335;50.526;30.458;2022-09-09T14:53:39;3.95;;;2.00;;
42834;SDS011;29335;50.526;30.458;2022-09-09T14:56:08;2.80;;;1.80;;
42834;SDS011;29335;50.526;30.458;2022-09-09T15:01:11;4.00;;;2.30;;
42834;SDS011;29335;50.526;30.458;2022-09-09T15:03:39;3.75;;;2.03;;
42834;SDS011;29335;50.526;30.458;2022-09-09T15:06:09;6.55;;;2.63;;
42834;SDS011;29335;50.526;30.458;2022-09-09T15:08:37;6.90;;;2.92;;
42834;SDS011;29335;50.526;30.458;2022-09-09T15:11:05;5.03;;;2.85;;
42834;SDS011;29335;50.526;30.458;2022-09-09T15:13:32;6.97;;;2.78;;
42834;SDS011;29335;50.526;30.458;2022-09-09T15:16:18;6.07;;;2.78;;
42834;SDS011;29335;50.526;30.458;2022-09-09T15:18:44;7.22;;;2.70;;
42834;SDS011;29335;50.526;30.458;2022-09-09T15:21:12;5.72;;;2.58;;
42834;SDS011;29335;50.526;30.458;2022-09-09T15:23:42;7.25;;;3.15;;
42834;SDS011;29335;50.526;30.458;2022-09-09T15:26:09;4.65;;;2.72;;
42834;SDS011;29335;50.526;30.458;2022-09-09T15:28:36;5.88;;;3.45;;
42834;SDS011;29335;50.526;30.458;2022-09-09T15:31:11;5.13;;;2.90;;
42834;SDS011;29335;50.526;30.458;2022-09-09T15:33:37;5.57;;;2.85;;
42834;SDS011;29335;50.526;30.458;2022-09-09T15:36:13;5.65;;;3.50;;
42834;SDS011;29335;50.526;30.458;2022-09-09T15:38:49;6.20;;;3.00;;
42834;SDS011;29335;50.526;30.458;2022-09-09T15:41:16;5.03;;;2.97;;
42834;SDS011;29335;50.526;30.458;2022-09-09T15:43:43;4.88;;;2.83;;
42834;SDS011;29335;50.526;30.458;2022-09-09T15:48:57;6.00;;;2.92;;
42834;SDS011;29335;50.526;30.458;2022-09-09T15:51:27;9.93;;;3.42;;
42834;SDS011;29335;50.526;30.458;2022-09-09T15:53:53;5.15;;;2.72;;
42834;SDS011;29335;50.526;30.458;2022-09-09T15:56:21;5.00;;;2.70;;
42834;SDS011;29335;50.526;30.458;2022-09-09T15:58:47;7.00;;;3.28;;
42834;SDS011;29335;50.526;30.458;2022-09-09T16:01:12;5.30;;;3.45;;
42834;SDS011;29335;50.526;30.458;2022-09-09T16:03:39;7.43;;;3.83;;
42834;SDS011;29335;50.526;30.458;2022-09-09T16:06:17;8.85;;;4.03;;
42834;SDS011;29335;50.526;30.458;2022-09-09T16:08:44;7.43;;;3.80;;
42834;SDS011;29335;50.526;30.458;2022-09-09T16:11:12;6.97;;;4.13;;
42834;SDS011;29335;50.526;30.458;2022-09-09T16:13:41;7.32;;;4.15;;
42834;SDS011;29335;50.526;30.458;2022-09-09T16:16:08;5.97;;;3.80;;
42834;SDS011;29335;50.526;30.458;2022-09-09T16:18:36;6.10;;;4.05;;
42834;SDS011;29335;50.526;30.458;2022-09-09T16:21:04;6.40;;;4.03;;
42834;SDS011;29335;50.526;30.458;2022-09-09T16:23:30;11.75;;;4.75;;
42834;SDS011;29335;50.526;30.458;2022-09-09T16:25:57;8.35;;;4.13;;
42834;SDS011;29335;50.526;30.458;2022-09-09T16:28:23;7.18;;;4.25;;
42834;SDS011;29335;50.526;30.458;2022-09-09T16:30:49;12.80;;;5.50;;
42834;SDS011;29335;50.526;30.458;2022-09-09T16:33:15;9.45;;;4.60;;
42834;SDS011;29335;50.526;30.458;2022-09-09T16:35:42;8.60;;;5.78;;
42834;SDS011;29335;50.526;30.458;2022-09-09T16:38:08;9.30;;;5.78;;
42834;SDS011;29335;50.526;30.458;2022-09-09T16:40:34;12.63;;;6.78;;
42834;SDS011;29335;50.526;30.458;2022-09-09T16:43:00;14.80;;;7.28;;
42834;SDS011;29335;50.526;30.458;2022-09-09T16:45:26;16.10;;;6.43;;
42834;SDS011;29335;50.526;30.458;2022-09-09T16:47:52;13.50;;;7.05;;
42834;SDS011;29335;50.526;30.458;2022-09-09T16:50:19;10.23;;;6.63;;
42834;SDS011;29335;50.526;30.458;2022-09-09T16:52:44;13.15;;;7.28;;
42834;SDS011;29335;50.526;30.458;2022-09-09T16:55:10;13.68;;;6.85;;